Latest Coastal Weather Observations for St Helens

IDT60701

Issued at 10:42 pm EST Tuesday 23 May 2017 (issued every 10 minutes, with the page automatically refreshed every 10 minutes)

About coastal observations | Map of coastal stations | Coastal observations for TAS | Marine services | Other Formats
Station Details ID: 092120 Name: ST HELENS AERODROME Lat: -41.34 Lon: 148.28 Height: 48.0 m
Data from the previous 72 hours. | See also: Recent months at St Helens
Date/Time
EST
Temp
°C
Wind Pressure Rain since
9am
mm
Weather Cloud Vis
km
Sea
Height
m
Swell
Dir  Spd
kts
Gust
kts
hPa Trend Height
m
Period
s
Dir
23/10:30pm 12.8 WNW 6 10 1011.8 - 0.4 - - 10 - - - -
23/10:00pm 12.8 NNW 7 10 1012.2 - 0.4 - Partly cloudy 10 - - - -
23/09:30pm 13.2 NNW 4 5 1012.8 - 0.4 - Partly cloudy 10 - - - -
23/09:00pm 13.6 N 5 8 1013.1 - 0.4 - Cloudy 10 - - - -
23/08:30pm 13.4 WNW 3 4 1013.6 - 0.4 - Cloudy 10 - - - -
23/08:00pm 13.7 NNW 7 10 1013.6 - 0.4 - Partly cloudy 10 - - - -
23/07:30pm 13.8 N 6 11 1013.9 - 0.4 - Cloudy 10 - - - -
23/07:00pm 14.0 WNW 5 8 1013.6 - 0.0 - Partly cloudy 10 - - - -
23/06:30pm 14.7 WNW 5 8 1014.0 - 0.0 - Partly cloudy 10 - - - -
23/06:00pm 14.9 NNW 7 11 1013.8 - 0.0 - Mostly cloudy 10 - - - -
23/05:30pm 15.2 NNW 6 11 1013.5 - 0.0 - Partly cloudy 10 - - - -
23/05:00pm 15.4 NNW 6 9 1013.4 - 0.0 - Partly cloudy 10 - - - -
23/04:30pm 15.5 NNW 6 11 1013.3 - 0.0 - Partly cloudy 10 - - - -
23/04:00pm 16.2 NW 6 11 1013.2 - 0.0 - - 10 - - - -
23/03:30pm 17.4 NW 6 9 1013.1 - 0.0 - Partly cloudy 10 - - - -
23/03:00pm 18.7 WNW 5 8 1013.1 - 0.0 - - 10 - - - -
23/02:30pm 18.1 W 8 16 1013.5 - 0.0 - Partly cloudy 10 - - - -
23/02:00pm 17.5 WNW 8 15 1013.6 - 0.0 - Partly cloudy 10 - - - -
23/01:30pm 18.8 NW 8 12 1013.7 - 0.0 - Partly cloudy 10 - - - -
23/01:00pm 17.4 NNW 8 14 1014.0 - 0.0 - - 10 - - - -
23/12:30pm 17.0 NNW 6 11 1014.5 - 0.0 - Partly cloudy 10 - - - -
23/12:00pm 16.0 N 4 6 1015.1 - 0.0 - - 10 - - - -
23/11:30am 15.4 NW 1 4 1015.4 - 0.0 - - 10 - - - -
23/11:00am 14.5 WNW 3 5 1015.7 - 0.0 - - 10 - - - -
23/10:30am 13.4 N 2 5 1016.1 - 0.0 - - 10 - - - -
23/10:00am 12.4 NW 2 5 1016.3 - 0.0 - - 10 - - - -
23/09:30am 11.3 W 3 5 1016.5 - 0.0 - - 10 - - - -
23/09:00am 10.8 NE 3 6 1016.7 - 0.2 Fine Mostly cloudy 25 - - - -
23/08:30am 10.6 N 3 4 1016.7 - 0.2 - - 10 - - - -
23/08:00am 10.3 E 2 5 1016.9 - 0.2 - - 10 - - - -
23/07:30am 10.4 SW 1 3 1016.9 - 0.2 - - 10 - - - -
23/07:00am 10.3 CALM 0 3 1017.0 - 0.2 - - 10 - - - -
23/06:30am 10.4 NNE 1 4 1017.1 - 0.2 - Partly cloudy 10 - - - -
23/06:08am 10.7 NNE 2 5 1016.9 - 0.2 - Partly cloudy 10 - - - -
23/06:00am 10.7 CALM 0 0 1017.0 - 0.2 - Mostly clear 10 - - - -
23/05:36am 10.7 CALM 0 0 1017.2 - 0.2 - Partly cloudy 10 - - - -
23/05:30am 10.7 CALM 0 0 1017.1 - 0.2 - Partly cloudy 10 - - - -
23/05:00am 11.1 NNE 3 4 1017.2 - 0.2 - - 10 - - - -
23/04:30am 11.3 CALM 0 3 1017.2 - 0.2 - - 10 - - - -
23/04:00am 10.9 CALM 0 3 1017.4 - 0.0 - - 10 - - - -
23/03:30am 11.2 NW 4 5 1017.6 - 0.0 - - 10 - - - -
23/03:00am 11.6 W 3 5 1017.6 - 0.0 - - 10 - - - -
23/02:30am 11.5 CALM 0 0 1017.2 - 0.0 - - 10 - - - -
23/02:00am 12.5 WNW 2 4 1017.7 - 0.0 - - 10 - - - -
23/01:30am 12.6 WSW 1 4 1018.3 - 0.0 - - 10 - - - -
23/01:00am 12.7 W 3 5 1018.7 - 0.0 - - 10 - - - -
23/12:30am 12.5 W 3 6 1018.7 - 0.0 - - 10 - - - -
23/12:00am 12.1 N 3 5 1019.2 - 0.0 - - 10 - - - -
 
Date/Time
EST
Temp
°C
Wind Pressure Rain since
9am
mm
Weather Cloud Vis
km
Sea
Height
m
Swell
Dir  Spd
kts
Gust
kts
hPa Trend Height
m
Period
s
Dir
22/11:30pm 12.5 NW 5 7 1019.3 - 0.0 - - 10 - - - -
22/11:00pm 12.2 NW 5 6 1019.4 - 0.0 - - 10 - - - -
22/10:30pm 12.9 WNW 4 7 1019.7 - 0.0 - - 10 - - - -
22/10:00pm 12.3 N 1 4 1019.6 - 0.0 - - 10 - - - -
22/09:30pm 12.6 WSW 3 6 1019.5 - 0.0 - - 10 - - - -
22/09:00pm 12.6 SW 3 5 1019.5 - 0.0 - - 10 - - - -
22/08:30pm 12.5 SW 3 5 1019.3 - 0.0 - - 10 - - - -
22/08:00pm 12.6 W 4 6 1019.2 - 0.0 - - 10 - - - -
22/07:30pm 12.6 SW 3 5 1019.3 - 0.0 - - 10 - - - -
22/07:00pm 13.5 W 3 5 1019.1 - 0.0 - - 10 - - - -
22/06:30pm 13.8 WNW 4 7 1019.0 - 0.0 - - 10 - - - -
22/06:00pm 14.4 NW 3 6 1018.9 - 0.0 - - 10 - - - -
22/05:30pm 14.6 N 4 5 1018.5 - 0.0 - - 10 - - - -
22/05:00pm 16.0 NNW 4 5 1018.3 - 0.0 - - 10 - - - -
22/04:30pm 17.1 NW 6 10 1018.3 - 0.0 - - 10 - - - -
22/04:00pm 18.2 NW 7 10 1018.1 - 0.0 - - 10 - - - -
22/03:30pm 18.9 NW 8 11 1018.1 - 0.0 - - 10 - - - -
22/03:00pm 19.4 NW 8 13 1018.3 - 0.0 - Mostly clear 10 - - - -
22/02:30pm 19.7 W 6 10 1018.1 - 0.0 - Partly cloudy 10 - - - -
22/02:00pm 19.5 WNW 8 13 1018.0 - 0.0 - - 10 - - - -
22/01:30pm 19.5 W 9 18 1018.0 - 0.0 - - 10 - - - -
22/01:00pm 19.3 W 6 11 1018.2 - 0.0 - - 10 - - - -
22/12:30pm 19.3 W 6 11 1018.4 - 0.0 - - 10 - - - -
22/12:00pm 19.0 NNE 5 7 1019.1 - 0.0 - - 10 - - - -
22/11:30am 17.8 NNE 4 7 1019.4 - 0.0 - Partly cloudy 10 - - - -
22/11:00am 15.3 N 6 8 1019.8 - 0.0 - Cloudy 10 - - - -
22/10:30am 14.6 N 2 6 1020.2 - 0.0 - Cloudy 10 - - - -
22/10:00am 12.6 N 4 6 1020.2 - 0.0 - Partly cloudy 10 - - - -
22/09:30am 11.3 NNE 3 4 1020.5 - 0.0 - Partly cloudy 10 - - - -
22/09:00am 10.1 N 6 7 1020.5 - 0.0 Fine Mostly clear 25 - - - -
22/08:30am 9.4 NNW 5 7 1020.6 - 0.0 - - 10 - - - -
22/08:00am 9.1 NNW 5 7 1020.4 - 0.0 - - 10 - - - -
22/07:30am 8.9 NNW 5 7 1020.1 - 0.0 - - 10 - - - -
22/07:00am 8.8 NNW 4 6 1019.8 - 0.0 - - 10 - - - -
22/06:30am 8.9 NNW 4 6 1019.7 - 0.0 - - 10 - - - -
22/06:00am 8.5 N 6 7 1019.4 - 0.0 - - 10 - - - -
22/05:30am 8.4 N 5 7 1019.1 - 0.0 - - 10 - - - -
22/05:00am 8.6 N 6 6 1019.0 - 0.0 - - 10 - - - -
22/04:30am 8.7 NW 6 8 1018.8 - 0.0 - - 10 - - - -
22/04:00am 9.0 NNW 6 7 1018.7 - 0.0 - - 10 - - - -
22/03:30am 9.4 NNW 7 8 1018.7 - 0.0 - - 10 - - - -
22/03:00am 10.8 NW 5 6 1018.7 - 0.0 - - 10 - - - -
22/02:30am 11.0 NNW 5 6 1018.6 - 0.0 - - 10 - - - -
22/02:00am 11.4 NNW 6 8 1018.4 - 0.0 - - 10 - - - -
22/01:30am 10.8 N 4 6 1018.4 - 0.0 - - 10 - - - -
22/01:00am 11.7 NW 6 8 1018.4 - 0.0 - - 10 - - - -
22/12:30am 12.1 NNW 4 6 1018.4 - 0.0 - - 10 - - - -
22/12:00am 11.9 NW 5 6 1018.5 - 0.0 - - 10 - - - -
 
Date/Time
EST
Temp
°C
Wind Pressure Rain since
9am
mm
Weather Cloud Vis
km
Sea
Height
m
Swell
Dir  Spd
kts
Gust
kts
hPa Trend Height
m
Period
s
Dir
21/11:30pm 12.6 WNW 6 9 1018.4 - 0.0 - - 10 - - - -
21/11:00pm 12.8 NW 6 7 1018.3 - 0.0 - - 10 - - - -
21/10:30pm 12.7 WNW 6 8 1018.2 - 0.0 - - 10 - - - -
21/10:00pm 12.3 NW 4 6 1018.2 - 0.0 - - 10 - - - -
21/09:30pm 12.6 WNW 6 8 1018.2 - 0.0 - - 10 - - - -
21/09:00pm 14.0 NW 4 6 1018.0 - 0.0 - - 10 - - - -
21/08:30pm 13.8 W 2 4 1017.7 - 0.0 - - 10 - - - -
21/08:00pm 14.3 WNW 3 7 1017.5 - 0.0 - - 10 - - - -
21/07:30pm 13.9 W 4 6 1017.3 - 0.0 - - 10 - - - -
21/07:00pm 13.9 NW 5 7 1017.0 - 0.0 - Partly cloudy 10 - - - -
21/06:30pm 14.3 WNW 4 6 1016.9 - 0.0 - Partly cloudy 10 - - - -
21/06:00pm 14.8 N 2 4 1016.6 - 0.0 - - 10 - - - -
21/05:30pm 15.8 NNW 4 7 1016.2 - 0.0 - - 10 - - - -
21/05:00pm 16.2 W 6 9 1015.7 - 0.0 - - 10 - - - -
21/04:30pm 17.6 NW 6 9 1015.5 - 0.0 - - 10 - - - -
21/04:00pm 18.7 NW 5 7 1015.2 - 0.0 - - 10 - - - -
21/03:30pm 18.9 W 6 10 1014.9 - 0.0 - - 10 - - - -
21/03:00pm 18.9 W 5 9 1014.6 - 0.0 - - 10 - - - -
21/02:30pm 19.5 WNW 4 6 1014.3 - 0.0 - - 10 - - - -
21/02:00pm 19.7 WSW 4 8 1014.3 - 0.0 - - 10 - - - -
21/01:30pm 18.8 W 6 11 1014.1 - 0.0 - - 10 - - - -
21/01:00pm 19.5 W 5 8 1014.1 - 0.0 - - 10 - - - -
21/12:30pm 19.5 W 4 7 1014.4 - 0.0 - - 10 - - - -
21/12:00pm 19.1 WNW 5 7 1014.8 - 0.0 - - 10 - - - -
21/11:30am 18.4 NW 5 7 1015.2 - 0.0 - Partly cloudy 10 - - - -
21/11:00am 17.9 NW 7 10 1015.4 - 0.0 - Cloudy 10 - - - -
21/10:30am 17.0 NW 7 11 1015.5 - 0.0 - Cloudy 10 - - - -
21/10:00am 15.1 WNW 3 6 1015.5 - 0.0 - Cloudy 10 - - - -
21/09:30am 14.6 N 5 6 1015.6 - 0.0 - Partly cloudy 10 - - - -
21/09:00am 14.4 NE 6 10 1015.5 - 103.6 Fine Mostly cloudy 25 - - - -
21/08:30am 14.3 W 5 7 1015.0 - 103.6 - Cloudy 10 - - - -
21/08:00am 14.2 WSW 7 13 1014.8 - 103.6 - Cloudy 10 - - - -
21/07:30am 13.6 WSW 9 16 1014.6 - 103.6 - Partly cloudy 10 - - - -
21/07:00am 13.3 W 6 10 1014.2 - 103.4 - Partly cloudy 10 - - - -
21/06:30am 13.3 SSW 10 16 1013.9 - 103.0 - Partly cloudy 10 - - - -
21/06:12am 13.4 SSW 15 26 1013.7 - 102.4 - Partly cloudy 9 - - - -
21/06:00am 13.4 S 12 19 1013.9 - 101.8 - Cloudy 10 - - - -
21/05:36am 13.5 SSW 13 21 1014.2 - 100.4 - Partly cloudy 10 - - - -
21/05:30am 13.4 SSW 13 19 1014.3 - 100.4 - Partly cloudy 6 - - - -
21/05:10am 13.4 SSW 12 18 1014.1 - 98.4 - Partly cloudy 5 - - - -
21/05:00am 13.4 SSW 10 19 1014.2 - 97.4 - Partly cloudy 10 - - - -
21/04:52am 13.4 SSW 10 16 1014.3 - 97.4 - Partly cloudy 10 - - - -
21/04:36am 13.4 SSW 11 16 1014.3 - 97.4 - Partly cloudy 5 - - - -
21/04:35am 13.4 SSW 10 16 1014.3 - 97.4 - Partly cloudy 5 - - - -
21/04:30am 13.5 SSW 10 16 1014.3 - 97.2 - Partly cloudy 6 - - - -
21/04:10am 13.5 SSW 11 17 1014.5 - 95.2 - Partly cloudy 2 - - - -
21/04:00am 13.5 SSW 13 19 1014.4 - 91.0 - Partly cloudy 2 - - - -
21/03:30am 13.9 S 12 21 1014.4 - 84.0 - Partly cloudy 1 - - - -
21/03:21am 13.8 SW 9 16 1014.7 - 79.2 - Partly cloudy 0.8 - - - -
21/03:13am 13.9 SSW 10 14 1015.1 - 71.2 - Partly cloudy 1 - - - -
21/03:00am 14.3 SSW 10 15 1015.5 - 61.0 - Cloudy 2 - - - -
21/02:30am 14.3 S 6 8 1016.0 - 46.6 - Partly cloudy 2 - - - -
21/02:00am 14.3 SSE 5 8 1016.6 - 43.2 - Partly cloudy 3 - - - -
21/01:30am 14.3 S 4 7 1016.9 - 38.8 - Partly cloudy 5 - - - -
21/01:00am 14.3 SSE 4 7 1017.4 - 38.2 - Partly cloudy 4 - - - -
21/12:52am 14.1 S 3 5 1017.5 - 37.6 - Partly cloudy 5 - - - -
21/12:44am 14.1 SSE 2 5 1017.5 - 37.2 - Partly cloudy 6 - - - -
21/12:35am 14.1 SE 2 5 1017.7 - 36.6 - Partly cloudy 5 - - - -
21/12:30am 14.1 SE 4 7 1017.7 - 36.6 - Partly cloudy 3 - - - -
21/12:17am 14.1 E 9 13 1017.8 - 33.4 - Partly cloudy 5 - - - -
21/12:00am 14.3 ENE 11 16 1018.0 - 31.0 - Cloudy 9 - - - -
 
Date/Time
EST
Temp
°C
Wind Pressure Rain since
9am
mm
Weather Cloud Vis
km
Sea
Height
m
Swell
Dir  Spd
kts
Gust
kts
hPa Trend Height
m
Period
s
Dir
20/11:30pm 14.6 ENE 12 17 1017.9 - 29.8 - Partly cloudy 10 - - - -
20/11:17pm 14.8 ENE 13 18 1017.9 - 29.4 - Partly cloudy 10 - - - -
20/11:00pm 15.0 NE 14 22 1017.9 - 28.8 - Partly cloudy 10 - - - -

Other Formats:

Comma delimited format used in spreadsheet applications
http://www.bom.gov.au/fwo/IDT60701/IDT60701.95981.axf

JavaScript Object Notation format (JSON) in row-major order
http://www.bom.gov.au/fwo/IDT60701/IDT60701.95981.json